createdAt,value
2022-11-17T00:01:59.501Z,10.17
2022-11-17T00:04:29.361Z,10.16
2022-11-17T00:06:58.080Z,10.21
2022-11-17T00:09:25.157Z,10.21
2022-11-17T00:12:10.852Z,10.22
2022-11-17T00:14:39.504Z,10.24
2022-11-17T00:17:10.155Z,10.26
2022-11-17T00:19:55.750Z,10.31
2022-11-17T00:22:24.161Z,10.30
2022-11-17T00:24:51.553Z,10.34
2022-11-17T00:27:18.331Z,10.38
2022-11-17T00:29:45.005Z,10.38
2022-11-17T00:32:34.527Z,10.43
2022-11-17T00:35:01.294Z,10.48
2022-11-17T00:37:30.213Z,10.49
2022-11-17T00:40:00.803Z,10.53
2022-11-17T00:42:27.986Z,10.56
2022-11-17T00:44:55.659Z,10.59
2022-11-17T00:47:22.712Z,10.57
2022-11-17T00:49:49.703Z,10.66
2022-11-17T00:52:16.244Z,10.60
2022-11-17T00:54:42.808Z,10.70
2022-11-17T00:57:09.329Z,10.72
2022-11-17T00:59:39.001Z,10.73
2022-11-17T01:02:09.354Z,10.68
2022-11-17T01:04:35.823Z,10.75
2022-11-17T01:07:02.400Z,10.75
2022-11-17T01:09:28.907Z,10.80
2022-11-17T01:11:55.378Z,10.81
2022-11-17T01:14:25.486Z,10.86
2022-11-17T01:16:53.219Z,10.78
2022-11-17T01:19:20.811Z,10.85
2022-11-17T01:21:47.552Z,10.81
2022-11-17T01:24:16.406Z,10.67
2022-11-17T01:26:45.312Z,10.72
2022-11-17T01:29:19.063Z,10.80
2022-11-17T01:31:50.444Z,10.77
2022-11-17T01:34:17.605Z,10.77
2022-11-17T01:37:03.503Z,10.78
2022-11-17T01:39:32.873Z,10.76
2022-11-17T01:42:05.480Z,10.77
2022-11-17T01:44:53.474Z,10.73
2022-11-17T01:47:28.660Z,10.76
2022-11-17T01:50:00.943Z,10.74
2022-11-17T01:52:29.478Z,10.74
2022-11-17T01:54:59.706Z,10.80
2022-11-17T01:57:38.465Z,10.73
2022-11-17T02:00:08.402Z,10.71
2022-11-17T02:02:37.212Z,10.73
2022-11-17T02:05:07.020Z,10.72
2022-11-17T02:07:38.241Z,10.77
2022-11-17T02:10:06.731Z,10.76
2022-11-17T02:12:37.982Z,10.76
2022-11-17T02:15:12.497Z,10.72
2022-11-17T02:17:42.287Z,10.71
2022-11-17T02:20:14.850Z,10.66
2022-11-17T02:22:50.140Z,10.65
2022-11-17T02:25:31.633Z,10.62
2022-11-17T02:28:26.278Z,10.58
2022-11-17T02:31:20.393Z,10.56
2022-11-17T02:33:54.492Z,10.55
2022-11-17T02:36:26.298Z,10.54
2022-11-17T02:39:18.375Z,10.50
2022-11-17T02:41:50.526Z,10.50
2022-11-17T02:44:26.302Z,10.50
2022-11-17T02:47:12.745Z,10.50
2022-11-17T02:49:44.578Z,10.48
2022-11-17T02:52:11.904Z,10.45
2022-11-17T02:54:38.485Z,10.45
2022-11-17T02:57:04.929Z,10.44
2022-11-17T02:59:35.811Z,10.45
2022-11-17T03:02:25.220Z,10.44
2022-11-17T03:05:20.092Z,10.40
2022-11-17T03:08:09.640Z,10.40
2022-11-17T03:10:44.856Z,10.44
2022-11-17T03:13:45.102Z,10.45
2022-11-17T03:16:30.148Z,10.45
2022-11-17T03:19:21.349Z,10.47
2022-11-17T03:21:55.506Z,10.43
2022-11-17T03:24:34.618Z,10.44
2022-11-17T03:27:10.913Z,10.45
2022-11-17T03:29:41.516Z,10.45
2022-11-17T03:32:09.399Z,10.48
2022-11-17T03:34:40.777Z,10.43
2022-11-17T03:37:10.615Z,10.51
2022-11-17T03:39:43.018Z,10.49
2022-11-17T03:42:15.591Z,10.50
2022-11-17T03:44:48.121Z,10.45
2022-11-17T03:47:16.076Z,10.48
2022-11-17T03:49:54.964Z,10.49
2022-11-17T03:52:21.951Z,10.49
2022-11-17T03:54:48.817Z,10.49
2022-11-17T03:57:35.029Z,10.49
2022-11-17T04:00:13.099Z,10.48
2022-11-17T04:02:43.900Z,10.49
2022-11-17T04:05:11.286Z,10.51
2022-11-17T04:07:40.511Z,10.51
2022-11-17T04:10:10.268Z,10.51
2022-11-17T04:12:55.811Z,10.47
2022-11-17T04:15:41.058Z,10.49
2022-11-17T04:18:07.637Z,10.46
2022-11-17T04:20:37.431Z,10.43
2022-11-17T04:23:09.034Z,10.45
2022-11-17T04:26:00.872Z,10.42
2022-11-17T04:28:38.017Z,10.41
2022-11-17T04:31:17.471Z,10.40
2022-11-17T04:33:46.373Z,10.41
2022-11-17T04:36:17.826Z,10.39
2022-11-17T04:38:46.709Z,10.33
2022-11-17T04:41:33.629Z,10.36
2022-11-17T04:44:01.591Z,10.30
2022-11-17T04:46:30.159Z,10.20
2022-11-17T04:48:58.035Z,10.13
2022-11-17T04:51:26.489Z,10.10
2022-11-17T04:53:53.711Z,10.06
2022-11-17T04:56:21.694Z,10.08
2022-11-17T04:58:48.319Z,10.06
2022-11-17T05:01:17.435Z,9.95
2022-11-17T05:04:01.150Z,10.02
2022-11-17T05:06:31.999Z,9.93
2022-11-17T05:09:00.494Z,9.84
2022-11-17T05:11:47.366Z,9.79
2022-11-17T05:14:16.738Z,9.78
2022-11-17T05:17:08.668Z,9.75
2022-11-17T05:19:38.748Z,9.71
2022-11-17T05:22:25.196Z,9.66
2022-11-17T05:24:52.977Z,9.70
2022-11-17T05:27:20.973Z,9.68
2022-11-17T05:29:47.590Z,9.67
2022-11-17T05:32:14.260Z,9.65
2022-11-17T05:34:40.897Z,9.62
2022-11-17T05:37:07.524Z,9.61
2022-11-17T05:39:33.985Z,9.59
2022-11-17T05:42:00.513Z,9.56
2022-11-17T05:44:27.110Z,9.53
2022-11-17T05:46:53.774Z,9.54
2022-11-17T05:49:20.252Z,9.53
2022-11-17T05:51:52.476Z,9.51
2022-11-17T05:54:19.488Z,9.49
2022-11-17T05:56:52.244Z,9.53
2022-11-17T05:59:32.517Z,9.55
2022-11-17T06:02:38.831Z,9.49
2022-11-17T06:05:06.032Z,9.48
2022-11-17T06:07:32.595Z,9.45
2022-11-17T06:09:59.138Z,9.44
2022-11-17T06:12:25.834Z,9.45
2022-11-17T06:14:52.269Z,9.41
2022-11-17T06:17:38.828Z,9.48
2022-11-17T06:20:13.305Z,9.45
2022-11-17T06:22:44.061Z,9.45
2022-11-17T06:25:14.040Z,9.46
2022-11-17T06:27:41.477Z,9.45
2022-11-17T06:30:08.315Z,9.45
2022-11-17T06:32:38.130Z,9.43
2022-11-17T06:35:06.981Z,9.45
2022-11-17T06:37:33.761Z,9.49
2022-11-17T06:40:00.289Z,9.51
2022-11-17T06:42:45.212Z,9.48
2022-11-17T06:45:12.146Z,9.48
2022-11-17T06:47:38.828Z,9.46
2022-11-17T06:50:06.374Z,9.51
2022-11-17T06:52:32.869Z,9.52
2022-11-17T06:54:59.356Z,9.53
2022-11-17T06:57:26.074Z,9.49
2022-11-17T06:59:52.852Z,9.49
2022-11-17T07:02:19.383Z,9.50
2022-11-17T07:04:45.847Z,9.51
2022-11-17T07:07:13.047Z,9.49
2022-11-17T07:09:39.620Z,9.48
2022-11-17T07:12:06.113Z,9.51
2022-11-17T07:14:32.954Z,9.51
2022-11-17T07:17:01.740Z,9.50
2022-11-17T07:19:28.193Z,9.47
2022-11-17T07:21:54.663Z,9.48
2022-11-17T07:24:21.113Z,9.44
2022-11-17T07:26:47.998Z,9.39
2022-11-17T07:29:14.487Z,9.40
2022-11-17T07:31:40.941Z,9.41
2022-11-17T07:34:07.556Z,9.35
2022-11-17T07:36:34.273Z,9.32
2022-11-17T07:39:00.959Z,9.30
2022-11-17T07:41:27.591Z,9.30
2022-11-17T07:43:54.036Z,9.29
2022-11-17T07:46:20.499Z,9.29
2022-11-17T07:48:46.977Z,9.24
2022-11-17T07:51:14.149Z,9.23
2022-11-17T07:53:40.961Z,9.29
2022-11-17T07:56:09.716Z,9.28
2022-11-17T07:58:37.633Z,9.35
2022-11-17T08:01:11.730Z,9.37
2022-11-17T08:03:38.299Z,9.28
2022-11-17T08:06:07.216Z,9.28
2022-11-17T08:08:34.818Z,9.36
2022-11-17T08:11:07.601Z,9.35
2022-11-17T08:13:34.873Z,9.31
2022-11-17T08:16:01.906Z,9.35
2022-11-17T08:18:29.762Z,9.35
2022-11-17T08:21:07.517Z,9.32
2022-11-17T08:23:34.271Z,9.31
2022-11-17T08:26:02.097Z,9.33
2022-11-17T08:28:28.589Z,9.34
2022-11-17T08:30:55.985Z,9.37
2022-11-17T08:33:22.618Z,9.35
2022-11-17T08:35:49.121Z,9.34
2022-11-17T08:38:15.681Z,9.32
2022-11-17T08:40:42.945Z,9.31
2022-11-17T08:43:09.511Z,9.30
2022-11-17T08:45:36.159Z,9.33
2022-11-17T08:48:04.236Z,9.33
2022-11-17T08:50:30.965Z,9.35
2022-11-17T08:52:57.482Z,9.37
2022-11-17T08:55:26.413Z,9.38
2022-11-17T08:57:53.143Z,9.35
2022-11-17T09:00:21.907Z,9.30
2022-11-17T09:02:49.926Z,9.38
2022-11-17T09:05:16.469Z,9.39
2022-11-17T09:07:43.460Z,9.33
2022-11-17T09:10:11.181Z,9.37
2022-11-17T09:12:38.346Z,9.37
2022-11-17T09:15:08.068Z,9.38
2022-11-17T09:17:34.984Z,9.28
2022-11-17T09:20:01.564Z,9.29
2022-11-17T09:22:28.089Z,9.30
2022-11-17T09:24:54.604Z,9.23
2022-11-17T09:27:21.111Z,9.20
2022-11-17T09:29:50.620Z,9.20
2022-11-17T09:32:19.399Z,9.20
2022-11-17T09:34:46.269Z,9.17
2022-11-17T09:37:12.765Z,9.15
2022-11-17T09:39:39.537Z,9.21
2022-11-17T09:42:06.644Z,9.23
2022-11-17T09:44:40.535Z,9.25
2022-11-17T09:47:28.762Z,9.19
2022-11-17T09:50:22.346Z,9.19
2022-11-17T09:53:07.878Z,9.19
2022-11-17T09:55:40.981Z,9.20
2022-11-17T09:58:26.948Z,9.19
2022-11-17T10:00:54.712Z,9.17
2022-11-17T10:03:25.608Z,9.21
2022-11-17T10:05:53.253Z,9.20
2022-11-17T10:08:58.451Z,9.25
2022-11-17T10:11:33.097Z,9.28
2022-11-17T10:14:22.456Z,9.31
2022-11-17T10:16:57.438Z,9.42
2022-11-17T10:19:28.038Z,9.51
2022-11-17T10:22:19.467Z,9.59
2022-11-17T10:24:55.660Z,9.67
2022-11-17T10:27:25.106Z,9.73
2022-11-17T10:30:04.438Z,9.79
2022-11-17T10:32:36.957Z,9.78
2022-11-17T10:35:31.239Z,9.78
2022-11-17T10:38:20.996Z,9.83
2022-11-17T10:40:51.678Z,9.85
2022-11-17T10:43:25.866Z,9.91
2022-11-17T10:46:07.516Z,9.99
2022-11-17T10:48:35.835Z,9.99
2022-11-17T10:51:21.636Z,10.02
2022-11-17T10:54:17.279Z,10.13
2022-11-17T10:56:53.857Z,10.33
2022-11-17T10:59:32.164Z,10.46
2022-11-17T11:02:33.458Z,10.54
2022-11-17T11:05:18.027Z,10.63
2022-11-17T11:07:45.221Z,10.67
2022-11-17T11:10:19.819Z,10.65
2022-11-17T11:12:56.862Z,10.69
2022-11-17T11:15:27.750Z,10.71
2022-11-17T11:17:54.456Z,10.73
2022-11-17T11:20:31.695Z,10.82
2022-11-17T11:23:06.206Z,10.87
2022-11-17T11:25:45.941Z,10.91
2022-11-17T11:28:15.338Z,10.93
2022-11-17T11:31:04.909Z,10.94
2022-11-17T11:33:39.066Z,10.96
2022-11-17T11:36:15.476Z,11.01
2022-11-17T11:39:06.734Z,11.05
2022-11-17T11:42:10.414Z,11.05
2022-11-17T11:44:36.912Z,11.05
2022-11-17T11:47:27.772Z,11.01
2022-11-17T11:50:01.645Z,10.91
2022-11-17T11:52:34.782Z,10.97
2022-11-17T11:55:05.906Z,10.96
2022-11-17T11:57:38.906Z,11.01
2022-11-17T12:00:14.712Z,10.94
2022-11-17T12:02:52.377Z,10.89
2022-11-17T12:05:37.518Z,10.84
2022-11-17T12:08:25.485Z,10.84
2022-11-17T12:10:58.918Z,10.85
2022-11-17T12:13:27.045Z,10.90
2022-11-17T12:16:26.244Z,10.98
2022-11-17T12:18:53.062Z,11.07
2022-11-17T12:21:27.250Z,11.12
2022-11-17T12:24:06.055Z,11.13
2022-11-17T12:26:33.619Z,11.17
2022-11-17T12:29:22.039Z,11.15
2022-11-17T12:31:57.974Z,11.10
2022-11-17T12:34:30.551Z,11.06
2022-11-17T12:37:15.303Z,11.03
2022-11-17T12:40:01.622Z,10.97
2022-11-17T12:42:30.627Z,10.95
2022-11-17T12:45:00.322Z,10.97
2022-11-17T12:47:41.090Z,11.08
2022-11-17T12:50:20.289Z,11.17
2022-11-17T12:53:05.603Z,11.23
2022-11-17T12:55:57.554Z,11.24
2022-11-17T12:58:36.083Z,11.32
2022-11-17T13:01:32.678Z,11.33
2022-11-17T13:04:06.549Z,11.36
2022-11-17T13:06:35.793Z,11.27
2022-11-17T13:09:27.353Z,11.27
2022-11-17T13:12:08.108Z,11.22
2022-11-17T13:14:36.929Z,11.24
2022-11-17T13:17:04.323Z,11.24
2022-11-17T13:19:33.362Z,11.30
2022-11-17T13:22:14.116Z,11.30
2022-11-17T13:24:44.999Z,11.32
2022-11-17T13:27:26.686Z,11.35
2022-11-17T13:30:16.258Z,11.30
2022-11-17T13:32:42.927Z,11.30
2022-11-17T13:35:21.908Z,11.30
2022-11-17T13:38:19.953Z,11.38
2022-11-17T13:40:48.630Z,11.38
2022-11-17T13:43:18.359Z,11.39
2022-11-17T13:45:45.858Z,11.41
2022-11-17T13:48:32.289Z,11.43
2022-11-17T13:51:14.983Z,11.45
2022-11-17T13:54:06.809Z,11.43
2022-11-17T13:56:49.393Z,11.44
2022-11-17T13:59:22.408Z,11.47
2022-11-17T14:01:48.997Z,11.51
2022-11-17T14:04:23.894Z,11.49
2022-11-17T14:07:02.431Z,11.56
2022-11-17T14:09:31.835Z,11.56
2022-11-17T14:11:59.420Z,11.50
2022-11-17T14:14:42.094Z,11.49
2022-11-17T14:17:29.237Z,11.48
2022-11-17T14:19:55.855Z,11.46
2022-11-17T14:22:30.958Z,11.47
2022-11-17T14:24:58.448Z,11.48
2022-11-17T14:27:27.788Z,11.49
2022-11-17T14:29:54.384Z,11.44
2022-11-17T14:32:21.341Z,11.44
2022-11-17T14:34:47.933Z,11.42
2022-11-17T14:37:14.561Z,11.39
2022-11-17T14:39:41.136Z,11.42
2022-11-17T14:42:08.976Z,11.43
2022-11-17T14:44:35.476Z,11.40
2022-11-17T14:47:02.121Z,11.41
2022-11-17T14:49:28.769Z,11.37
2022-11-17T14:51:57.245Z,11.42
2022-11-17T14:54:23.874Z,11.43
2022-11-17T14:56:50.432Z,11.48
2022-11-17T14:59:17.220Z,11.48
2022-11-17T15:01:43.960Z,11.50
2022-11-17T15:04:43.058Z,11.44
2022-11-17T15:07:01.138Z,11.44
2022-11-17T15:09:27.946Z,11.38
2022-11-17T15:11:54.509Z,11.30
2022-11-17T15:14:21.081Z,11.24
2022-11-17T15:16:47.716Z,11.26
2022-11-17T15:19:14.418Z,11.18
2022-11-17T15:21:41.038Z,11.16
2022-11-17T15:24:09.577Z,11.17
2022-11-17T15:26:36.203Z,11.14
2022-11-17T15:29:02.878Z,11.14
2022-11-17T15:31:29.797Z,11.07
2022-11-17T15:33:56.401Z,11.07
2022-11-17T15:36:23.443Z,11.07
2022-11-17T15:38:50.364Z,11.07
2022-11-17T15:41:17.103Z,11.06
2022-11-17T15:43:45.063Z,11.08
2022-11-17T15:46:13.869Z,11.04
2022-11-17T15:48:43.221Z,11.06
2022-11-17T15:51:14.999Z,10.99
2022-11-17T15:53:43.918Z,10.95
2022-11-17T15:56:19.489Z,10.93
2022-11-17T15:58:47.880Z,10.90
2022-11-17T16:01:33.869Z,10.94
2022-11-17T16:04:03.026Z,10.90
2022-11-17T16:06:31.047Z,10.88
2022-11-17T16:08:57.789Z,10.89
2022-11-17T16:11:26.873Z,10.88
2022-11-17T16:13:57.738Z,10.88
2022-11-17T16:16:26.580Z,10.97
2022-11-17T16:18:53.397Z,10.94
2022-11-17T16:21:20.708Z,10.90
2022-11-17T16:23:49.519Z,10.87
2022-11-17T16:26:17.810Z,10.85
2022-11-17T16:28:44.438Z,10.76
2022-11-17T16:31:22.281Z,10.73
2022-11-17T16:33:54.131Z,10.69
2022-11-17T16:36:23.239Z,10.62
2022-11-17T16:39:02.088Z,10.60
2022-11-17T16:41:32.609Z,10.52
2022-11-17T16:43:59.974Z,10.43
2022-11-17T16:46:29.461Z,10.44
2022-11-17T16:48:57.007Z,10.47
2022-11-17T16:51:24.765Z,10.47
2022-11-17T16:54:02.945Z,10.49
2022-11-17T16:56:30.283Z,10.52
2022-11-17T16:58:57.104Z,10.43
2022-11-17T17:01:30.251Z,10.41
2022-11-17T17:04:01.260Z,10.33
2022-11-17T17:06:28.328Z,10.32
2022-11-17T17:09:05.511Z,10.28
2022-11-17T17:11:33.907Z,10.27
2022-11-17T17:14:03.137Z,10.30
2022-11-17T17:16:31.603Z,10.23
2022-11-17T17:19:00.623Z,10.22
2022-11-17T17:21:28.933Z,10.22
2022-11-17T17:23:56.396Z,10.22
2022-11-17T17:26:25.850Z,10.19
2022-11-17T17:28:55.638Z,10.21
2022-11-17T17:31:23.933Z,10.13
2022-11-17T17:33:51.526Z,10.11
2022-11-17T17:36:23.458Z,10.15
2022-11-17T17:38:55.596Z,10.12
2022-11-17T17:41:25.292Z,10.04
2022-11-17T17:44:01.322Z,10.04
2022-11-17T17:46:30.348Z,10.07
2022-11-17T17:48:57.527Z,10.07
2022-11-17T17:51:25.711Z,10.05
2022-11-17T17:53:54.205Z,10.04
2022-11-17T17:56:21.860Z,10.03
2022-11-17T17:58:50.705Z,9.94
2022-11-17T18:01:25.980Z,9.93
2022-11-17T18:03:54.324Z,9.88
2022-11-17T18:06:22.257Z,9.81
2022-11-17T18:08:50.126Z,9.82
2022-11-17T18:11:19.718Z,9.79
2022-11-17T18:13:51.335Z,9.77
2022-11-17T18:16:24.043Z,9.71
2022-11-17T18:18:55.420Z,9.80
2022-11-17T18:21:22.139Z,9.75
2022-11-17T18:23:48.721Z,9.72
2022-11-17T18:26:21.431Z,9.70
2022-11-17T18:28:56.239Z,9.70
2022-11-17T18:31:25.423Z,9.68
2022-11-17T18:33:57.195Z,9.70
2022-11-17T18:36:24.869Z,9.70
2022-11-17T18:38:52.782Z,9.69
2022-11-17T18:41:20.869Z,9.70
2022-11-17T18:43:47.910Z,9.68
2022-11-17T18:46:17.354Z,9.69
2022-11-17T18:48:46.483Z,9.65
2022-11-17T18:51:19.821Z,9.57
2022-11-17T18:53:47.337Z,9.52
2022-11-17T18:56:15.973Z,9.51
2022-11-17T18:58:43.501Z,9.52
2022-11-17T19:01:16.386Z,9.49
2022-11-17T19:03:44.959Z,9.49
2022-11-17T19:06:12.905Z,9.42
2022-11-17T19:08:41.450Z,9.42
2022-11-17T19:11:09.727Z,9.43
2022-11-17T19:13:38.488Z,9.43
2022-11-17T19:16:21.603Z,9.39
2022-11-17T19:18:50.000Z,9.36
2022-11-17T19:21:24.103Z,9.37
2022-11-17T19:23:52.211Z,9.35
2022-11-17T19:26:19.116Z,9.36
2022-11-17T19:28:45.996Z,9.32
2022-11-17T19:31:17.873Z,9.36
2022-11-17T19:33:46.054Z,9.33
2022-11-17T19:36:15.432Z,9.40
2022-11-17T19:38:43.239Z,9.36
2022-11-17T19:41:15.682Z,9.34
2022-11-17T19:43:45.466Z,9.32
2022-11-17T19:46:16.768Z,9.31
2022-11-17T19:48:44.229Z,9.34
2022-11-17T19:51:17.302Z,9.34
2022-11-17T19:53:44.178Z,9.30
2022-11-17T19:56:10.827Z,9.25
2022-11-17T19:58:37.784Z,9.20
2022-11-17T20:01:15.647Z,9.21
2022-11-17T20:03:43.134Z,9.19
2022-11-17T20:06:12.079Z,9.20
2022-11-17T20:08:39.253Z,9.16
2022-11-17T20:11:07.347Z,9.14
2022-11-17T20:13:35.024Z,9.18
2022-11-17T20:16:07.409Z,9.14
2022-11-17T20:18:36.961Z,9.11
2022-11-17T20:21:05.377Z,9.10
2022-11-17T20:23:36.050Z,9.05
2022-11-17T20:26:04.373Z,9.03
2022-11-17T20:28:35.366Z,9.05
2022-11-17T20:31:24.317Z,9.04
2022-11-17T20:33:52.104Z,9.00
2022-11-17T20:36:20.531Z,8.97
2022-11-17T20:38:57.987Z,8.95
2022-11-17T20:41:25.436Z,8.98
2022-11-17T20:43:53.992Z,9.04
2022-11-17T20:46:21.717Z,8.98
2022-11-17T20:48:49.034Z,8.95
2022-11-17T20:51:25.697Z,8.92
2022-11-17T20:53:52.761Z,8.84
2022-11-17T20:56:19.743Z,8.87
2022-11-17T20:58:46.357Z,8.86
2022-11-17T21:01:18.436Z,8.87
2022-11-17T21:03:45.807Z,8.93
2022-11-17T21:06:13.497Z,8.97
2022-11-17T21:08:41.941Z,8.93
2022-11-17T21:11:33.698Z,8.90
2022-11-17T21:14:01.135Z,8.91
2022-11-17T21:16:28.254Z,8.88
2022-11-17T21:18:54.870Z,8.90
2022-11-17T21:21:21.361Z,8.84
2022-11-17T21:23:48.071Z,8.77
2022-11-17T21:26:19.007Z,8.76
2022-11-17T21:28:46.790Z,8.73
2022-11-17T21:31:15.932Z,8.79
2022-11-17T21:33:44.166Z,8.78
2022-11-17T21:36:16.020Z,8.79
2022-11-17T21:38:44.483Z,8.78
2022-11-17T21:41:20.260Z,8.80
2022-11-17T21:43:48.782Z,8.74
2022-11-17T21:46:23.121Z,8.75
2022-11-17T21:48:51.076Z,8.70
2022-11-17T21:51:21.523Z,8.73
2022-11-17T21:53:52.431Z,8.75
2022-11-17T21:56:18.960Z,8.76
2022-11-17T21:58:45.481Z,8.78
2022-11-17T22:01:14.358Z,8.78
2022-11-17T22:03:41.686Z,8.79
2022-11-17T22:06:18.158Z,8.80
2022-11-17T22:08:46.403Z,8.70
2022-11-17T22:11:37.982Z,8.69
2022-11-17T22:14:31.523Z,8.63
2022-11-17T22:16:58.042Z,8.61
2022-11-17T22:19:27.728Z,8.63
2022-11-17T22:21:54.963Z,8.54
2022-11-17T22:24:21.832Z,8.49
2022-11-17T22:26:48.470Z,8.53
2022-11-17T22:29:18.157Z,8.48
2022-11-17T22:31:46.339Z,8.41
2022-11-17T22:34:13.839Z,8.37
2022-11-17T22:36:40.413Z,8.44
2022-11-17T22:39:07.004Z,8.44
2022-11-17T22:41:33.528Z,8.45
2022-11-17T22:44:00.501Z,8.48
2022-11-17T22:46:28.553Z,8.46
2022-11-17T22:48:55.325Z,8.58
2022-11-17T22:51:40.845Z,8.59
2022-11-17T22:54:08.630Z,8.61
2022-11-17T22:56:35.915Z,8.63
2022-11-17T22:59:02.562Z,8.63
2022-11-17T23:01:29.372Z,8.57
2022-11-17T23:03:56.028Z,8.54
2022-11-17T23:06:22.874Z,8.47
2022-11-17T23:08:50.102Z,8.43
2022-11-17T23:14:03.866Z,8.43
2022-11-17T23:16:30.365Z,8.42
2022-11-17T23:18:57.419Z,8.48
2022-11-17T23:21:24.455Z,8.55
2022-11-17T23:23:51.500Z,8.57
2022-11-17T23:26:18.112Z,8.55
2022-11-17T23:28:45.420Z,8.52
2022-11-17T23:31:16.138Z,8.48
2022-11-17T23:33:44.888Z,8.55
2022-11-17T23:36:16.763Z,8.56
2022-11-17T23:38:43.471Z,8.53
2022-11-17T23:41:13.299Z,8.55
2022-11-17T23:43:40.675Z,8.58
2022-11-17T23:46:09.881Z,8.57
2022-11-17T23:48:36.498Z,8.55
2022-11-17T23:51:22.711Z,8.53
2022-11-17T23:53:52.361Z,8.43
2022-11-17T23:56:22.619Z,8.41
2022-11-17T23:58:50.052Z,8.37
